createdAt,value
2019-04-28T00:01:57.601Z,22.40
2019-04-28T00:05:15.623Z,22.40
2019-04-28T00:07:45.605Z,22.30
2019-04-28T00:10:17.235Z,22.30
2019-04-28T00:12:46.926Z,22.30
2019-04-28T00:15:18.109Z,22.30
2019-04-28T00:17:48.119Z,22.30
2019-04-28T00:20:47.114Z,22.30
2019-04-28T00:23:31.852Z,22.30
2019-04-28T00:26:17.300Z,22.30
2019-04-28T00:31:41.388Z,22.20
2019-04-28T00:34:16.591Z,22.20
2019-04-28T00:36:51.097Z,22.20
2019-04-28T00:39:25.408Z,22.20
2019-04-28T00:41:54.586Z,22.20
2019-04-28T00:44:25.697Z,22.20
2019-04-28T00:46:55.165Z,22.20
2019-04-28T00:50:02.137Z,22.20
2019-04-28T00:52:38.469Z,22.20
2019-04-28T00:55:07.394Z,22.20
2019-04-28T00:57:51.171Z,22.10
2019-04-28T01:00:14.593Z,22.20
2019-04-28T01:02:46.852Z,22.20
2019-04-28T01:05:21.236Z,22.20
2019-04-28T01:07:54.513Z,22.20
2019-04-28T01:10:32.541Z,22.10
2019-04-28T01:13:02.097Z,22.10
2019-04-28T01:15:52.490Z,22.20
2019-04-28T01:18:40.339Z,22.20
2019-04-28T01:21:10.727Z,22.20
2019-04-28T01:26:54.057Z,22.10
2019-04-28T01:29:23.148Z,22.10
2019-04-28T01:32:17.777Z,22.10
2019-04-28T01:34:50.664Z,22.10
2019-04-28T01:37:26.090Z,22.10
2019-04-28T01:39:55.917Z,22.10
2019-04-28T01:42:26.243Z,22.10
2019-04-28T01:45:02.557Z,22.10
2019-04-28T01:47:53.859Z,22.10
2019-04-28T01:50:21.331Z,22.10
2019-04-28T01:52:59.817Z,22.00
2019-04-28T01:55:39.541Z,22.10
2019-04-28T01:58:11.691Z,22.00
2019-04-28T02:00:44.180Z,22.10
2019-04-28T02:03:15.736Z,22.00
2019-04-28T02:05:51.198Z,22.00
2019-04-28T02:08:20.426Z,22.00
2019-04-28T02:10:51.942Z,22.00
2019-04-28T02:13:21.299Z,22.00
2019-04-28T02:15:50.598Z,22.00
2019-04-28T02:18:22.733Z,22.00
2019-04-28T02:21:01.856Z,22.00
2019-04-28T02:23:35.261Z,22.00
2019-04-28T02:26:12.158Z,22.00
2019-04-28T02:28:47.203Z,22.00
2019-04-28T02:31:21.478Z,22.00
2019-04-28T02:33:50.489Z,22.00
2019-04-28T02:36:26.211Z,21.90
2019-04-28T02:39:03.678Z,21.90
2019-04-28T02:41:41.163Z,21.90
2019-04-28T02:44:17.205Z,21.90
2019-04-28T02:47:01.201Z,21.90
2019-04-28T02:49:50.437Z,21.80
2019-04-28T02:52:41.745Z,21.90
2019-04-28T02:55:11.446Z,21.80
2019-04-28T02:57:40.796Z,21.80
2019-04-28T03:00:10.470Z,21.80
2019-04-28T03:02:41.374Z,21.80
2019-04-28T03:05:11.554Z,21.80
2019-04-28T03:07:51.183Z,21.80
2019-04-28T03:10:21.411Z,21.80
2019-04-28T03:12:51.681Z,21.80
2019-04-28T03:15:21.107Z,21.90
2019-04-28T03:17:53.152Z,21.90
2019-04-28T03:20:25.416Z,21.80
2019-04-28T03:22:55.789Z,21.80
2019-04-28T03:26:01.350Z,21.80
2019-04-28T03:28:47.715Z,21.80
2019-04-28T03:32:07.293Z,21.80
2019-04-28T03:34:13.322Z,21.80
2019-04-28T03:39:23.932Z,21.70
2019-04-28T03:41:53.203Z,21.80
2019-04-28T03:44:30.872Z,21.80
2019-04-28T03:47:03.070Z,21.70
2019-04-28T03:49:36.442Z,21.80
2019-04-28T03:52:06.947Z,21.70
2019-04-28T03:54:36.123Z,21.80
2019-04-28T03:57:05.748Z,21.80
2019-04-28T03:59:35.731Z,21.80
2019-04-28T04:04:54.541Z,21.70
2019-04-28T04:07:23.655Z,21.70
2019-04-28T04:10:11.664Z,21.70
2019-04-28T04:12:57.144Z,21.70
2019-04-28T04:15:55.415Z,21.70
2019-04-28T04:18:53.635Z,21.70
2019-04-28T04:21:23.255Z,21.70
2019-04-28T04:23:54.159Z,21.60
2019-04-28T04:26:24.421Z,21.60
2019-04-28T04:28:54.184Z,21.60
2019-04-28T04:31:23.636Z,21.60
2019-04-28T04:33:53.601Z,21.60
2019-04-28T04:36:25.547Z,21.60
2019-04-28T04:38:55.294Z,21.60
2019-04-28T04:41:25.955Z,21.60
2019-04-28T04:43:55.179Z,21.60
2019-04-28T04:46:26.967Z,21.60
2019-04-28T04:49:00.443Z,21.60
2019-04-28T04:51:43.343Z,21.60
2019-04-28T04:54:10.797Z,21.60
2019-04-28T04:56:59.917Z,21.60
2019-04-28T04:59:50.122Z,21.60
2019-04-28T05:02:50.697Z,21.50
2019-04-28T05:05:21.632Z,21.60
2019-04-28T05:08:15.476Z,21.50
2019-04-28T05:10:45.114Z,21.50
2019-04-28T05:13:15.140Z,21.50
2019-04-28T05:15:47.005Z,21.50
2019-04-28T05:18:24.951Z,21.50
2019-04-28T05:20:55.195Z,21.50
2019-04-28T05:23:41.061Z,21.50
2019-04-28T05:26:12.305Z,21.60
2019-04-28T05:28:50.514Z,21.50
2019-04-28T05:31:20.620Z,21.50
2019-04-28T05:33:50.479Z,21.50
2019-04-28T05:36:21.590Z,21.50
2019-04-28T05:38:56.757Z,21.50
2019-04-28T05:44:41.707Z,21.50
2019-04-28T05:47:27.137Z,21.50
2019-04-28T05:50:14.000Z,21.50
2019-04-28T05:53:02.300Z,21.50
2019-04-28T05:55:57.315Z,21.50
2019-04-28T05:58:33.181Z,21.50
2019-04-28T06:01:30.455Z,21.50
2019-04-28T06:04:03.996Z,21.50
2019-04-28T06:06:40.404Z,21.50
2019-04-28T06:09:22.696Z,21.50
2019-04-28T06:11:54.456Z,21.50
2019-04-28T06:14:25.207Z,21.50
2019-04-28T06:17:00.437Z,21.40
2019-04-28T06:19:30.199Z,21.40
2019-04-28T06:22:04.884Z,21.50
2019-04-28T06:24:36.496Z,21.50
2019-04-28T06:27:23.381Z,21.40
2019-04-28T06:32:42.079Z,21.40
2019-04-28T06:35:43.796Z,21.40
2019-04-28T06:38:12.776Z,21.40
2019-04-28T06:40:41.939Z,21.40
2019-04-28T06:43:10.908Z,21.40
2019-04-28T06:45:47.600Z,21.40
2019-04-28T06:48:19.128Z,21.40
2019-04-28T06:50:48.343Z,21.40
2019-04-28T06:53:17.197Z,21.40
2019-04-28T06:55:46.322Z,21.40
2019-04-28T06:58:16.723Z,21.40
2019-04-28T07:00:46.277Z,21.40
2019-04-28T07:03:22.946Z,21.40
2019-04-28T07:05:55.489Z,21.40
2019-04-28T07:08:24.805Z,21.30
2019-04-28T07:11:05.519Z,21.40
2019-04-28T07:13:36.539Z,21.40
2019-04-28T07:16:07.586Z,21.50
2019-04-28T07:18:36.723Z,21.50
2019-04-28T07:21:38.665Z,21.50
2019-04-28T07:24:15.135Z,21.60
2019-04-28T07:26:47.107Z,21.80
2019-04-28T07:29:19.720Z,21.90
2019-04-28T07:31:49.147Z,22.00
2019-04-28T07:34:41.658Z,22.00
2019-04-28T07:37:05.440Z,22.10
2019-04-28T07:39:22.414Z,22.10
2019-04-28T07:42:01.469Z,22.10
2019-04-28T07:44:34.384Z,22.10
2019-04-28T07:47:03.568Z,22.10
2019-04-28T07:49:41.052Z,22.20
2019-04-28T07:52:32.564Z,22.10
2019-04-28T07:55:09.317Z,22.10
2019-04-28T07:57:38.389Z,22.10
2019-04-28T08:00:07.960Z,22.00
2019-04-28T08:02:45.851Z,22.00
2019-04-28T08:05:15.563Z,22.00
2019-04-28T08:08:12.359Z,22.00
2019-04-28T08:10:41.432Z,22.10
2019-04-28T08:13:10.852Z,22.10
2019-04-28T08:15:40.073Z,22.20
2019-04-28T08:18:09.054Z,22.20
2019-04-28T08:20:41.142Z,22.40
2019-04-28T08:23:10.288Z,22.50
2019-04-28T08:25:39.947Z,22.70
2019-04-28T08:28:10.114Z,22.80
2019-04-28T08:30:40.977Z,22.90
2019-04-28T08:33:29.441Z,22.90
2019-04-28T08:35:58.754Z,23.00
2019-04-28T08:38:37.293Z,23.00
2019-04-28T08:41:08.079Z,23.00
2019-04-28T08:43:38.626Z,23.00
2019-04-28T08:46:26.841Z,22.90
2019-04-28T08:48:58.207Z,22.90
2019-04-28T08:51:48.229Z,22.90
2019-04-28T08:54:17.468Z,22.80
2019-04-28T08:56:49.100Z,22.90
2019-04-28T08:59:19.473Z,22.80
2019-04-28T09:01:48.808Z,22.70
2019-04-28T09:04:22.565Z,22.60
2019-04-28T09:06:55.624Z,22.50
2019-04-28T09:09:25.496Z,22.40
2019-04-28T09:11:56.451Z,22.30
2019-04-28T09:14:26.445Z,22.20
2019-04-28T09:17:01.619Z,22.20
2019-04-28T09:19:43.353Z,22.00
2019-04-28T09:22:27.893Z,22.00
2019-04-28T09:25:00.985Z,22.00
2019-04-28T09:27:37.892Z,21.90
2019-04-28T09:32:52.836Z,21.80
2019-04-28T09:35:22.169Z,21.80
2019-04-28T09:38:01.162Z,21.80
2019-04-28T09:40:30.913Z,21.80
2019-04-28T09:43:24.643Z,21.80
2019-04-28T09:46:15.540Z,21.90
2019-04-28T09:48:48.061Z,21.80
2019-04-28T09:51:18.653Z,21.90
2019-04-28T09:53:50.124Z,21.90
2019-04-28T09:56:27.258Z,22.00
2019-04-28T09:58:57.118Z,22.00
2019-04-28T10:01:30.422Z,22.00
2019-04-28T10:04:01.272Z,22.00
2019-04-28T10:06:31.885Z,22.10
2019-04-28T10:09:02.855Z,22.10
2019-04-28T10:11:32.564Z,22.10
2019-04-28T10:14:07.831Z,22.10
2019-04-28T10:16:37.672Z,22.10
2019-04-28T10:19:10.324Z,22.10
2019-04-28T10:22:02.023Z,22.10
2019-04-28T10:24:33.244Z,22.10
2019-04-28T10:27:04.567Z,22.10
2019-04-28T10:29:34.233Z,22.10
2019-04-28T10:32:06.313Z,22.10
2019-04-28T10:34:40.811Z,22.10
2019-04-28T10:37:17.867Z,22.10
2019-04-28T10:40:02.584Z,22.10
2019-04-28T10:42:33.724Z,22.10
2019-04-28T10:45:18.869Z,22.10
2019-04-28T10:47:50.397Z,22.10
2019-04-28T10:50:23.320Z,22.10
2019-04-28T10:52:56.924Z,22.10
2019-04-28T10:55:30.198Z,22.10
2019-04-28T10:58:10.673Z,22.20
2019-04-28T11:00:42.299Z,22.30
2019-04-28T11:03:11.413Z,22.40
2019-04-28T11:05:55.362Z,22.50
2019-04-28T11:08:43.780Z,22.60
2019-04-28T11:13:58.630Z,22.90
2019-04-28T11:16:31.358Z,23.00
2019-04-28T11:19:00.373Z,23.00
2019-04-28T11:21:30.356Z,23.10
2019-04-28T11:24:00.536Z,23.10
2019-04-28T11:26:29.695Z,23.10
2019-04-28T11:28:59.375Z,23.10
2019-04-28T11:31:46.487Z,23.10
2019-04-28T11:34:26.316Z,23.10
2019-04-28T11:36:55.524Z,23.20
2019-04-28T11:39:44.947Z,23.20
2019-04-28T11:42:14.361Z,23.20
2019-04-28T11:44:45.253Z,23.20
2019-04-28T11:47:17.932Z,23.20
2019-04-28T11:49:49.036Z,23.20
2019-04-28T11:52:18.508Z,23.40
2019-04-28T11:54:47.907Z,23.50
2019-04-28T11:57:27.551Z,23.70
2019-04-28T12:00:06.589Z,23.70
2019-04-28T12:02:35.890Z,23.60
2019-04-28T12:05:14.062Z,23.50
2019-04-28T12:07:46.467Z,23.50
2019-04-28T12:10:22.726Z,23.40
2019-04-28T12:13:03.175Z,23.40
2019-04-28T12:15:49.479Z,23.40
2019-04-28T12:18:40.820Z,23.40
2019-04-28T12:21:10.827Z,23.40
2019-04-28T12:23:42.596Z,23.40
2019-04-28T12:26:19.977Z,23.30
2019-04-28T12:28:49.466Z,23.30
2019-04-28T12:31:19.979Z,23.20
2019-04-28T12:33:55.887Z,23.20
2019-04-28T12:36:25.472Z,23.10
2019-04-28T12:38:59.562Z,23.10
2019-04-28T12:41:29.221Z,23.10
2019-04-28T12:44:00.184Z,23.10
2019-04-28T12:52:12.763Z,22.90
2019-04-28T12:54:44.671Z,22.90
2019-04-28T12:57:14.047Z,22.90
2019-04-28T13:00:03.113Z,22.80
2019-04-28T13:03:04.899Z,22.80
2019-04-28T13:05:38.967Z,22.80
2019-04-28T13:08:10.130Z,22.80
2019-04-28T13:10:40.407Z,22.80
2019-04-28T13:13:09.811Z,22.80
2019-04-28T13:16:00.223Z,22.70
2019-04-28T13:24:06.688Z,22.80
2019-04-28T13:26:43.405Z,22.80
2019-04-28T13:29:14.375Z,22.80
2019-04-28T13:31:53.712Z,22.70
2019-04-28T13:34:40.744Z,22.80
2019-04-28T13:37:12.143Z,22.80
2019-04-28T13:40:16.827Z,22.80
2019-04-28T13:45:44.745Z,22.80
2019-04-28T13:48:14.475Z,22.90
2019-04-28T13:50:55.379Z,22.90
2019-04-28T13:53:27.868Z,22.90
2019-04-28T13:56:05.293Z,22.90
2019-04-28T13:58:37.571Z,22.90
2019-04-28T14:01:35.413Z,22.90
2019-04-28T14:04:28.327Z,22.80
2019-04-28T14:07:02.631Z,22.80
2019-04-28T14:09:39.770Z,22.80
2019-04-28T14:12:16.381Z,22.80
2019-04-28T14:14:47.345Z,22.80
2019-04-28T14:17:34.551Z,22.80
2019-04-28T14:20:03.806Z,22.80
2019-04-28T14:22:33.779Z,22.80
2019-04-28T14:25:17.871Z,22.90
2019-04-28T14:27:47.560Z,22.90
2019-04-28T14:30:51.550Z,22.90
2019-04-28T14:33:21.992Z,22.90
2019-04-28T14:35:51.284Z,23.00
2019-04-28T14:38:21.598Z,23.00
2019-04-28T14:43:40.859Z,23.10
2019-04-28T14:46:12.237Z,23.10
2019-04-28T14:48:41.683Z,23.10
2019-04-28T14:51:11.354Z,23.00
2019-04-28T14:56:21.445Z,23.10
2019-04-28T14:58:51.131Z,23.10
2019-04-28T15:01:37.212Z,23.00
2019-04-28T15:04:09.361Z,23.00
2019-04-28T15:06:55.119Z,23.00
2019-04-28T15:09:54.101Z,23.00
2019-04-28T15:12:25.493Z,22.90
2019-04-28T15:17:47.729Z,22.90
2019-04-28T15:20:17.275Z,22.90
2019-04-28T15:28:00.418Z,22.90
2019-04-28T15:30:29.342Z,22.90
2019-04-28T15:32:58.952Z,22.90
2019-04-28T15:38:13.955Z,22.90
2019-04-28T15:40:43.504Z,22.90
2019-04-28T15:43:16.035Z,22.90
2019-04-28T15:45:45.446Z,22.90
2019-04-28T15:48:58.477Z,22.90
2019-04-28T15:51:06.920Z,22.90
2019-04-28T15:53:57.217Z,22.90
2019-04-28T15:56:47.551Z,22.90
2019-04-28T15:59:31.691Z,22.90
2019-04-28T16:02:04.393Z,22.90
2019-04-28T16:04:36.677Z,22.90
2019-04-28T16:07:06.241Z,22.90
2019-04-28T16:09:35.335Z,22.90
2019-04-28T16:12:07.172Z,22.90
2019-04-28T16:14:36.732Z,22.90
2019-04-28T16:17:06.269Z,22.90
2019-04-28T16:19:39.841Z,22.90
2019-04-28T16:22:09.216Z,22.90
2019-04-28T16:24:39.241Z,22.90
2019-04-28T16:27:15.421Z,22.90
2019-04-28T16:29:40.846Z,22.90
2019-04-28T16:32:10.170Z,22.90
2019-04-28T16:34:39.942Z,22.90
2019-04-28T16:37:09.391Z,22.90
2019-04-28T16:39:38.658Z,22.90
2019-04-28T16:42:34.497Z,22.90
2019-04-28T16:45:10.563Z,22.90
2019-04-28T16:47:40.363Z,22.90
2019-04-28T16:50:27.748Z,22.90
2019-04-28T16:52:56.995Z,22.90
2019-04-28T16:55:33.527Z,22.90
2019-04-28T16:58:35.486Z,22.90
2019-04-28T17:01:23.677Z,22.90
2019-04-28T17:04:04.722Z,22.90
2019-04-28T17:06:39.814Z,22.90
2019-04-28T17:09:09.311Z,22.90
2019-04-28T17:11:40.366Z,22.90
2019-04-28T17:14:11.198Z,23.00
2019-04-28T17:16:41.037Z,23.00
2019-04-28T17:19:17.658Z,23.00
2019-04-28T17:21:59.310Z,23.00
2019-04-28T17:24:30.747Z,23.10
2019-04-28T17:27:05.281Z,23.10
2019-04-28T17:29:40.003Z,23.10
2019-04-28T17:32:12.183Z,23.10
2019-04-28T17:34:52.747Z,23.10
2019-04-28T17:37:25.339Z,23.20
2019-04-28T17:39:56.914Z,23.20
2019-04-28T17:43:05.262Z,23.20
2019-04-28T17:45:36.301Z,23.20
2019-04-28T17:48:28.116Z,23.20
2019-04-28T17:51:01.513Z,23.10
2019-04-28T17:53:53.946Z,23.10
2019-04-28T17:56:50.536Z,23.10
2019-04-28T17:59:23.517Z,23.10
2019-04-28T18:02:18.241Z,23.10
2019-04-28T18:05:00.428Z,23.10
2019-04-28T18:07:56.528Z,23.10
2019-04-28T18:13:43.658Z,23.10
2019-04-28T18:16:39.739Z,23.10
2019-04-28T18:19:15.787Z,23.10
2019-04-28T18:24:47.171Z,23.20
2019-04-28T18:27:20.880Z,23.20
2019-04-28T18:29:50.546Z,23.20
2019-04-28T18:32:31.031Z,23.30
2019-04-28T18:35:06.248Z,23.30
2019-04-28T18:38:03.342Z,23.40
2019-04-28T18:40:50.231Z,23.40
2019-04-28T18:44:00.657Z,23.40
2019-04-28T18:46:24.144Z,23.30
2019-04-28T18:48:56.054Z,23.30
2019-04-28T18:51:35.673Z,23.30
2019-04-28T18:57:18.206Z,23.20
2019-04-28T18:59:51.244Z,23.20
2019-04-28T19:02:46.504Z,23.10
2019-04-28T19:05:17.039Z,23.10
2019-04-28T19:08:24.494Z,23.00
2019-04-28T19:11:13.064Z,22.90
2019-04-28T19:13:49.410Z,22.90
2019-04-28T19:16:36.464Z,22.90
2019-04-28T19:19:08.039Z,22.90
2019-04-28T19:21:37.429Z,22.90
2019-04-28T19:24:26.327Z,22.80
2019-04-28T19:26:57.093Z,22.80
2019-04-28T19:29:29.527Z,22.80
2019-04-28T19:32:01.109Z,22.70
2019-04-28T19:34:55.115Z,22.70
2019-04-28T19:37:24.248Z,22.60
2019-04-28T19:39:54.647Z,22.60
2019-04-28T19:42:25.947Z,22.60
2019-04-28T19:44:55.758Z,22.60
2019-04-28T19:49:59.092Z,22.50
2019-04-28T19:52:28.885Z,22.50
2019-04-28T19:55:25.089Z,22.40
2019-04-28T20:00:50.093Z,22.40
2019-04-28T20:03:19.997Z,22.40
2019-04-28T20:05:50.236Z,22.40
2019-04-28T20:08:19.472Z,22.40
2019-04-28T20:10:49.356Z,22.40
2019-04-28T20:13:23.243Z,22.50
2019-04-28T20:15:53.308Z,22.50
2019-04-28T20:18:24.833Z,22.50
2019-04-28T20:20:55.827Z,22.50
2019-04-28T20:23:26.271Z,22.50
2019-04-28T20:26:00.525Z,22.50
2019-04-28T20:28:31.273Z,22.50
2019-04-28T20:31:03.697Z,22.50
2019-04-28T20:33:37.024Z,22.40
2019-04-28T20:36:16.652Z,22.40
2019-04-28T20:38:57.262Z,22.40
2019-04-28T20:41:33.914Z,22.40
2019-04-28T20:44:07.299Z,22.30
2019-04-28T20:46:39.968Z,22.30
2019-04-28T20:49:24.831Z,22.30
2019-04-28T20:52:00.631Z,22.30
2019-04-28T20:54:30.139Z,22.30
2019-04-28T20:59:29.135Z,22.30
2019-04-28T21:01:59.867Z,22.40
2019-04-28T21:04:40.055Z,22.40
2019-04-28T21:07:13.159Z,22.40
2019-04-28T21:09:46.794Z,22.40
2019-04-28T21:12:30.907Z,22.50
2019-04-28T21:15:00.758Z,22.50
2019-04-28T21:17:37.947Z,22.50
2019-04-28T21:20:09.160Z,22.50
2019-04-28T21:22:48.615Z,22.50
2019-04-28T21:25:19.967Z,22.50
2019-04-28T21:27:57.132Z,22.50
2019-04-28T21:30:32.930Z,22.50
2019-04-28T21:33:03.529Z,22.60
2019-04-28T21:35:33.655Z,22.60
2019-04-28T21:38:03.065Z,22.60
2019-04-28T21:40:34.707Z,22.60
2019-04-28T21:43:22.106Z,22.60
2019-04-28T21:46:12.039Z,22.60
2019-04-28T21:48:47.328Z,22.50
2019-04-28T21:51:18.727Z,22.50
2019-04-28T21:58:57.548Z,22.50
2019-04-28T22:01:29.067Z,22.50
2019-04-28T22:04:20.141Z,22.50
2019-04-28T22:07:01.503Z,22.50
2019-04-28T22:12:14.950Z,22.50
2019-04-28T22:14:45.204Z,22.50
2019-04-28T22:17:16.447Z,22.50
2019-04-28T22:19:49.769Z,22.50
2019-04-28T22:22:22.941Z,22.40
2019-04-28T22:25:11.065Z,22.30
2019-04-28T22:27:59.507Z,22.30
2019-04-28T22:30:31.268Z,22.20
2019-04-28T22:33:01.140Z,22.20
2019-04-28T22:35:31.287Z,22.20
2019-04-28T22:38:01.823Z,22.20
2019-04-28T22:40:37.077Z,22.10
2019-04-28T22:43:11.891Z,22.10
2019-04-28T22:45:51.728Z,22.10
2019-04-28T22:51:10.724Z,22.10
2019-04-28T22:53:41.312Z,22.10
2019-04-28T22:56:32.746Z,22.10
2019-04-28T22:59:05.984Z,22.10
2019-04-28T23:01:50.419Z,22.10
2019-04-28T23:04:43.258Z,22.10
2019-04-28T23:07:13.378Z,22.00
2019-04-28T23:09:46.943Z,22.00
2019-04-28T23:12:27.876Z,22.00
2019-04-28T23:14:58.593Z,22.00
2019-04-28T23:17:35.357Z,22.00
2019-04-28T23:20:27.913Z,22.00
2019-04-28T23:22:59.780Z,22.00
2019-04-28T23:28:18.372Z,21.90
2019-04-28T23:30:49.935Z,22.00
2019-04-28T23:33:37.932Z,22.00
2019-04-28T23:36:26.517Z,22.00
2019-04-28T23:38:55.428Z,22.00
2019-04-28T23:41:47.748Z,21.90
2019-04-28T23:44:17.202Z,22.00
2019-04-28T23:46:59.270Z,21.90
2019-04-28T23:49:29.370Z,21.90
2019-04-28T23:52:14.668Z,21.90
2019-04-28T23:54:47.834Z,21.90
2019-04-28T23:57:17.739Z,21.80
2019-04-28T23:59:55.415Z,21.80
